createdAt,value
2023-02-19T00:03:16.995Z,99761.81
2023-02-19T00:08:20.125Z,99750.44
2023-02-19T00:13:23.127Z,99767.38
2023-02-19T00:18:26.166Z,99718.97
2023-02-19T00:23:29.326Z,99748.19
2023-02-19T00:28:32.542Z,99738.66
2023-02-19T00:33:36.021Z,99726.84
2023-02-19T00:38:41.000Z,99731.00
2023-02-19T00:43:44.143Z,99716.97
2023-02-19T00:48:47.716Z,99716.66
2023-02-19T00:53:51.216Z,99701.16
2023-02-19T00:58:54.428Z,99738.75
2023-02-19T01:03:57.798Z,99712.69
2023-02-19T01:09:01.523Z,99726.00
2023-02-19T01:14:05.298Z,99725.91
2023-02-19T01:19:09.115Z,99740.38
2023-02-19T01:24:15.106Z,99723.97
2023-02-19T01:29:18.106Z,99736.63
2023-02-19T01:34:21.736Z,99733.97
2023-02-19T01:39:24.710Z,99739.03
2023-02-19T01:44:27.638Z,99769.97
2023-02-19T01:49:36.523Z,99751.19
2023-02-19T01:54:43.385Z,99758.84
2023-02-19T01:59:50.386Z,99778.53
2023-02-19T02:04:53.723Z,99768.50
2023-02-19T02:10:15.726Z,99786.69
2023-02-19T02:15:19.918Z,99788.00
2023-02-19T02:20:58.954Z,99796.94
2023-02-19T02:26:30.959Z,99803.13
2023-02-19T02:31:47.063Z,99804.88
2023-02-19T02:36:55.745Z,99787.03
2023-02-19T02:42:18.964Z,99790.00
2023-02-19T02:47:43.428Z,99772.88
2023-02-19T02:53:10.198Z,99811.94
2023-02-19T02:58:15.017Z,99815.94
2023-02-19T03:03:21.558Z,99803.31
2023-02-19T03:08:30.017Z,99824.16
2023-02-19T03:13:56.251Z,99812.78
2023-02-19T03:19:19.120Z,99828.66
2023-02-19T03:24:46.254Z,99829.53
2023-02-19T03:29:52.436Z,99819.22
2023-02-19T03:35:14.168Z,99828.84
2023-02-19T03:40:18.062Z,99824.53
2023-02-19T03:45:27.274Z,99844.38
2023-02-19T03:50:30.803Z,99860.72
2023-02-19T03:55:40.413Z,99859.63
2023-02-19T04:00:56.081Z,99867.31
2023-02-19T04:06:03.579Z,99869.00
2023-02-19T04:11:09.153Z,99859.41
2023-02-19T04:16:23.194Z,99871.28
2023-02-19T04:21:30.147Z,99874.91
2023-02-19T04:26:34.756Z,99864.53
2023-02-19T04:31:38.914Z,99864.66
2023-02-19T04:36:41.851Z,99883.31
2023-02-19T04:41:44.880Z,99883.88
2023-02-19T04:46:48.075Z,99874.41
2023-02-19T04:51:51.112Z,99886.78
2023-02-19T04:56:54.104Z,99885.91
2023-02-19T05:01:58.308Z,99895.19
2023-02-19T05:07:01.349Z,99873.44
2023-02-19T05:12:04.626Z,99896.78
2023-02-19T05:17:07.668Z,99891.34
2023-02-19T05:22:10.776Z,99892.03
2023-02-19T05:27:13.816Z,99903.75
2023-02-19T05:32:16.840Z,99894.31
2023-02-19T05:37:19.934Z,99903.75
2023-02-19T05:42:23.081Z,99913.41
2023-02-19T05:47:26.114Z,99896.38
2023-02-19T05:52:29.139Z,99901.34
2023-02-19T05:57:32.180Z,99918.47
2023-02-19T06:02:36.374Z,99910.34
2023-02-19T06:07:39.937Z,99917.81
2023-02-19T06:12:42.962Z,99915.38
2023-02-19T06:17:45.938Z,99919.81
2023-02-19T06:22:51.127Z,99922.28
2023-02-19T06:27:54.328Z,99926.53
2023-02-19T06:32:57.501Z,99931.50
2023-02-19T06:38:00.499Z,99928.69
2023-02-19T06:43:03.771Z,99929.63
2023-02-19T06:48:07.034Z,99928.06
2023-02-19T06:53:11.943Z,99911.19
2023-02-19T06:58:14.877Z,99931.50
2023-02-19T07:03:17.989Z,99912.44
2023-02-19T07:08:21.092Z,99930.22
2023-02-19T07:13:27.015Z,99935.72
2023-02-19T07:18:30.960Z,99925.13
2023-02-19T07:23:34.802Z,99938.44
2023-02-19T07:28:37.848Z,99916.19
2023-02-19T07:33:43.799Z,99964.16
2023-02-19T07:38:46.920Z,99946.28
2023-02-19T07:43:49.977Z,99957.19
2023-02-19T07:48:53.114Z,99934.78
2023-02-19T07:53:56.158Z,99945.03
2023-02-19T07:59:00.655Z,99952.59
2023-02-19T08:04:03.613Z,99939.91
2023-02-19T08:09:07.080Z,99957.13
2023-02-19T08:14:10.100Z,99942.13
2023-02-19T08:19:13.126Z,99955.38
2023-02-19T08:24:16.177Z,99965.38
2023-02-19T08:29:19.260Z,99958.31
2023-02-19T08:34:22.293Z,99967.13
2023-02-19T08:39:25.385Z,99947.97
2023-02-19T08:44:28.483Z,99974.75
2023-02-19T08:49:31.538Z,99971.91
2023-02-19T08:54:36.208Z,99974.16
2023-02-19T08:59:40.221Z,99962.72
2023-02-19T09:04:43.354Z,99966.28
2023-02-19T09:09:46.390Z,99974.44
2023-02-19T09:14:49.598Z,99956.53
2023-02-19T09:19:52.639Z,99961.25
2023-02-19T09:24:55.744Z,99970.06
2023-02-19T09:29:58.943Z,99959.00
2023-02-19T09:35:01.970Z,99971.97
2023-02-19T09:40:06.562Z,99961.69
2023-02-19T09:45:21.435Z,99950.22
2023-02-19T09:50:37.677Z,99967.72
2023-02-19T09:55:43.217Z,99970.50
2023-02-19T10:00:49.948Z,99987.28
2023-02-19T10:05:54.271Z,99964.19
2023-02-19T10:10:57.270Z,99961.78
2023-02-19T10:16:04.225Z,99975.69
2023-02-19T10:21:07.902Z,99989.56
2023-02-19T10:26:11.137Z,99973.63
2023-02-19T10:31:25.766Z,99986.75
2023-02-19T10:36:40.006Z,99968.75
2023-02-19T10:41:44.313Z,99980.69
2023-02-19T10:46:50.650Z,99991.72
2023-02-19T10:51:56.218Z,99998.44
2023-02-19T10:57:40.902Z,100005.63
2023-02-19T11:02:45.451Z,99990.59
2023-02-19T11:07:54.945Z,100009.03
2023-02-19T11:13:05.159Z,100022.13
2023-02-19T11:18:13.698Z,100032.13
2023-02-19T11:23:31.088Z,100017.22
2023-02-19T11:28:40.926Z,100015.78
2023-02-19T11:34:05.497Z,100024.88
2023-02-19T11:39:22.279Z,100009.53
2023-02-19T11:44:47.011Z,100039.66
2023-02-19T11:50:11.878Z,100022.47
2023-02-19T11:55:14.713Z,100046.91
2023-02-19T12:00:51.587Z,100027.91
2023-02-19T12:06:38.871Z,100058.28
2023-02-19T12:11:53.875Z,100050.47
2023-02-19T12:17:31.726Z,100079.44
2023-02-19T12:22:46.349Z,100086.41
2023-02-19T12:28:27.353Z,100076.81
2023-02-19T12:33:48.341Z,100104.19
2023-02-19T12:39:25.595Z,100109.38
2023-02-19T12:44:48.630Z,100112.50
2023-02-19T12:49:59.687Z,100115.63
2023-02-19T12:55:28.900Z,100116.75
2023-02-19T13:00:39.864Z,100103.47
2023-02-19T13:05:50.653Z,100113.28
2023-02-19T13:11:30.628Z,100132.88
2023-02-19T13:16:37.583Z,100131.19
2023-02-19T13:21:59.783Z,100142.72
2023-02-19T13:27:24.173Z,100145.03
2023-02-19T13:32:48.613Z,100151.97
2023-02-19T13:37:53.845Z,100140.03
2023-02-19T13:43:00.116Z,100136.84
2023-02-19T13:48:26.845Z,100155.84
2023-02-19T13:53:52.084Z,100168.00
2023-02-19T13:58:57.727Z,100177.53
2023-02-19T14:04:23.738Z,100159.06
2023-02-19T14:09:41.552Z,100176.94
2023-02-19T14:14:57.724Z,100160.34
2023-02-19T14:20:44.568Z,100183.59
2023-02-19T14:26:00.035Z,100182.06
2023-02-19T14:31:25.165Z,100183.06
2023-02-19T14:36:28.255Z,100196.06
2023-02-19T14:41:34.359Z,100166.78
2023-02-19T14:46:45.671Z,100168.78
2023-02-19T14:51:53.262Z,100195.78
2023-02-19T14:56:57.609Z,100188.19
2023-02-19T15:02:14.852Z,100185.66
2023-02-19T15:07:24.962Z,100190.34
2023-02-19T15:12:34.965Z,100220.00
2023-02-19T15:17:41.911Z,100208.00
2023-02-19T15:22:46.560Z,100232.28
2023-02-19T15:27:50.499Z,100210.97
2023-02-19T15:32:55.989Z,100223.06
2023-02-19T15:37:59.141Z,100231.81
2023-02-19T15:43:02.300Z,100219.13
2023-02-19T15:48:13.934Z,100236.47
2023-02-19T15:53:23.857Z,100236.53
2023-02-19T15:58:42.986Z,100240.75
2023-02-19T16:03:46.374Z,100233.13
2023-02-19T16:09:02.431Z,100257.41
2023-02-19T16:14:23.930Z,100263.47
2023-02-19T16:19:33.743Z,100232.44
2023-02-19T16:24:45.531Z,100233.44
2023-02-19T16:29:51.925Z,100270.03
2023-02-19T16:34:54.975Z,100265.81
2023-02-19T16:40:11.463Z,100277.88
2023-02-19T16:45:16.364Z,100259.91
2023-02-19T16:50:23.370Z,100265.94
2023-02-19T16:55:26.493Z,100260.78
2023-02-19T17:00:34.673Z,100245.34
2023-02-19T17:05:39.085Z,100235.94
2023-02-19T17:10:42.182Z,100243.75
2023-02-19T17:15:45.195Z,100249.75
2023-02-19T17:20:55.724Z,100248.09
2023-02-19T17:25:58.830Z,100260.41
2023-02-19T17:31:01.942Z,100258.78
2023-02-19T17:36:05.386Z,100250.06
2023-02-19T17:41:08.574Z,100260.41
2023-02-19T17:46:26.053Z,100270.19
2023-02-19T17:51:29.080Z,100276.38
2023-02-19T17:56:32.129Z,100251.41
2023-02-19T18:01:35.257Z,100241.03
2023-02-19T18:06:38.403Z,100267.78
2023-02-19T18:11:46.352Z,100264.56
2023-02-19T18:16:50.697Z,100276.75
2023-02-19T18:21:53.908Z,100278.38
2023-02-19T18:26:56.990Z,100258.69
2023-02-19T18:32:00.160Z,100281.19
2023-02-19T18:37:03.533Z,100284.66
2023-02-19T18:42:06.624Z,100296.94
2023-02-19T18:47:11.765Z,100291.72
2023-02-19T18:52:16.452Z,100280.28
2023-02-19T18:57:21.022Z,100294.28
2023-02-19T19:02:24.243Z,100292.41
2023-02-19T19:07:27.359Z,100296.78
2023-02-19T19:12:30.610Z,100292.53
2023-02-19T19:17:33.672Z,100293.44
2023-02-19T19:22:37.471Z,100271.03
2023-02-19T19:27:40.433Z,100290.09
2023-02-19T19:32:43.465Z,100290.13
2023-02-19T19:37:46.504Z,100284.09
2023-02-19T19:42:52.660Z,100306.56
2023-02-19T19:47:55.777Z,100303.19
2023-02-19T19:52:58.819Z,100304.91
2023-02-19T19:58:01.803Z,100287.66
2023-02-19T20:03:05.845Z,100313.63
2023-02-19T20:08:08.947Z,100295.47
2023-02-19T20:13:12.150Z,100327.47
2023-02-19T20:18:15.180Z,100307.59
2023-02-19T20:23:18.213Z,100304.19
2023-02-19T20:28:21.251Z,100300.69
2023-02-19T20:33:24.265Z,100301.56
2023-02-19T20:38:27.285Z,100307.59
2023-02-19T20:43:30.343Z,100309.34
2023-02-19T20:48:33.368Z,100321.41
2023-02-19T20:53:38.115Z,100335.25
2023-02-19T20:58:43.910Z,100330.91
2023-02-19T21:03:46.901Z,100314.44
2023-02-19T21:08:49.853Z,100342.88
2023-02-19T21:13:53.034Z,100330.81
2023-02-19T21:18:56.636Z,100321.28
2023-02-19T21:24:00.999Z,100316.88
2023-02-19T21:29:08.227Z,100339.31
2023-02-19T21:34:14.437Z,100340.94
2023-02-19T21:39:20.111Z,100336.63
2023-02-19T21:44:23.227Z,100319.53
2023-02-19T21:49:26.350Z,100333.38
2023-02-19T21:54:29.495Z,100327.41
2023-02-19T21:59:32.529Z,100330.00
2023-02-19T22:04:35.510Z,100317.91
2023-02-19T22:09:39.208Z,100301.47
2023-02-19T22:14:43.896Z,100325.72
2023-02-19T22:19:47.051Z,100314.47
2023-02-19T22:24:50.097Z,100296.31
2023-02-19T22:29:53.072Z,100319.69
2023-02-19T22:34:56.046Z,100306.69
2023-02-19T22:39:59.095Z,100307.56
2023-02-19T22:45:02.196Z,100322.22
2023-02-19T22:50:16.299Z,100297.13
2023-02-19T22:55:19.417Z,100320.41
2023-02-19T23:00:22.606Z,100297.00
2023-02-19T23:05:25.815Z,100299.56
2023-02-19T23:10:29.032Z,100303.09
2023-02-19T23:15:32.065Z,100298.72
2023-02-19T23:20:35.745Z,100286.53
2023-02-19T23:25:38.860Z,100293.31
2023-02-19T23:30:41.936Z,100261.44
2023-02-19T23:35:45.231Z,100293.50
2023-02-19T23:40:48.374Z,100279.69
2023-02-19T23:45:51.523Z,100273.63
2023-02-19T23:50:54.615Z,100275.44
2023-02-19T23:55:57.685Z,100297.94
